Time;durP1;ratioP1;P1;durP2;ratioP2;P2;SDS_P1;SDS_P2;PMS_P1;PMS_P2;Temp;Humidity;BMP_temperature;BMP_pressure;BME280_temperature;BME280_humidity;BME280_pressure;Samples;Min_cycle;Max_cycle;Signal;HPM_P1;HPM_P2
2022/05/08 06:31:23;;;;;;;;;;;;;;;12.25;60.81;101521.94;5018096;28;707;-90
2022/05/08 06:34:18;;;;;;;;;;;;;;;12.45;60.60;101516.56;5016929;28;1493;-89
2022/05/08 06:36:44;;;;;;;;;;;;;;;12.55;59.97;101520.44;4995498;28;1233;-89
2022/05/08 06:39:09;;;;;;;;;;;;;;;12.55;60.54;101514.94;4999948;28;1326;-89
2022/05/08 06:41:34;;;;;;;;;;;;;;;12.51;59.87;101509.97;4999908;28;1244;-89
2022/05/08 06:43:59;;;;;;;;;;;;;;;12.69;59.98;101518.84;4999817;28;1327;-90
2022/05/08 06:46:25;;;;;;;;;;;;;;;12.67;58.93;101516.38;5000088;28;2054;-89
2022/05/08 06:48:50;;;;;;;;;;;;;;;12.60;59.89;101517.69;5000078;28;1446;-90
2022/05/08 06:51:18;;;;;;;;;;;;;;;12.63;59.35;101512.50;4999782;28;1349;-91
2022/05/08 06:53:43;;;;;;;;;;;;;;;12.46;58.63;101509.97;4999888;28;1245;-90
2022/05/08 06:56:12;;;;;;;;;;;;;;;12.80;58.46;101515.03;4982386;28;1098;-91
2022/05/08 07:01:34;;;;;;;;;;;;;;;12.88;58.58;101525.50;4986753;28;1701;-90
2022/05/08 07:01:51;;;;;;;;;;;;;;;12.71;58.92;101517.47;5016145;28;1189;-90
2022/05/08 07:04:17;;;;;;;;;;;;;;;12.60;58.01;101517.69;4993595;28;1194;-90
2022/05/08 07:07:02;;;;;;;;;;;;;;;12.30;58.29;101524.72;5009343;28;1886;-90
2022/05/08 07:09:28;;;;;;;;;;;;;;;12.10;58.80;101536.41;4999638;28;1322;-90
2022/05/08 07:11:55;;;;;;;;;;;;;;;11.85;59.34;101528.03;5021057;28;1306;-91
2022/05/08 07:14:34;;;;;;;;;;;;;;;11.79;59.17;101528.25;5037782;28;849;-90
2022/05/08 07:17:10;;;;;;;;;;;;;;;11.84;59.38;101520.88;5011830;28;1441;-90
2022/05/08 07:19:38;;;;;;;;;;;;;;;11.91;59.64;101529.69;5000504;28;1729;-90
2022/05/08 07:22:04;;;;;;;;;;;;;;;12.00;59.45;101525.38;5001586;28;1365;-90
2022/05/08 07:24:31;;;;;;;;;;;;;;;12.05;58.64;101530.09;5000271;28;1241;-90
2022/05/08 07:27:02;;;;;;;;;;;;;;;12.25;59.98;101527.44;4999577;28;1953;-90
2022/05/08 07:29:30;;;;;;;;;;;;;;;12.45;58.31;101533.03;5000792;28;1181;-90
2022/05/08 07:31:55;;;;;;;;;;;;;;;12.37;58.67;101535.47;5000371;28;1335;-90
2022/05/08 07:37:07;;;;;;;;;;;;;;;12.38;56.69;101542.63;5017582;28;1870;-90
2022/05/08 07:39:32;;;;;;;;;;;;;;;12.05;57.91;101532.81;5000361;28;1351;-90
2022/05/08 07:41:58;;;;;;;;;;;;;;;12.04;60.39;101532.00;5018395;28;1256;-91
2022/05/08 07:44:24;;;;;;;;;;;;;;;12.43;57.69;101545.38;5018092;28;1298;-91
2022/05/08 07:46:49;;;;;;;;;;;;;;;12.64;56.33;101546.31;5017907;28;1967;-90
2022/05/08 07:49:15;;;;;;;;;;;;;;;12.50;56.51;101545.97;5018323;28;1418;-91
2022/05/08 07:51:40;;;;;;;;;;;;;;;12.51;54.45;101550.34;5017947;28;893;-91
2022/05/08 07:54:05;;;;;;;;;;;;;;;12.52;55.95;101552.00;5018014;28;1305;-92
2022/05/08 07:56:30;;;;;;;;;;;;;;;12.43;56.79;101551.69;5017891;28;968;-88
2022/05/08 07:58:55;;;;;;;;;;;;;;;12.79;56.85;101554.59;5005791;28;1796;-90
2022/05/08 08:01:20;;;;;;;;;;;;;;;12.83;55.33;101556.53;4984507;28;1838;-90
2022/05/08 08:03:46;;;;;;;;;;;;;;;12.60;57.74;101556.16;4997873;28;1217;-90
2022/05/08 08:06:11;;;;;;;;;;;;;;;12.72;58.04;101559.50;5013124;28;1945;-90
2022/05/08 08:08:36;;;;;;;;;;;;;;;12.93;55.41;101554.94;5017687;28;1365;-91
2022/05/08 08:11:03;;;;;;;;;;;;;;;13.04;54.13;101559.34;5017778;28;1337;-91
2022/05/08 08:13:29;;;;;;;;;;;;;;;12.93;51.55;101563.19;5017369;28;1276;-91
2022/05/08 08:15:55;;;;;;;;;;;;;;;12.80;53.63;101561.75;5013874;28;1371;-90
2022/05/08 08:18:20;;;;;;;;;;;;;;;12.81;54.18;101564.22;5017473;28;1163;-91
2022/05/08 08:20:45;;;;;;;;;;;;;;;12.62;53.38;101564.97;5017394;28;1336;-90
2022/05/08 08:23:10;;;;;;;;;;;;;;;12.89;55.06;101562.88;5017506;28;1266;-91
2022/05/08 08:25:36;;;;;;;;;;;;;;;12.76;53.57;101566.13;5017285;28;1905;-90
2022/05/08 08:28:01;;;;;;;;;;;;;;;12.70;52.83;101575.44;5017487;28;1302;-91
2022/05/08 08:30:27;;;;;;;;;;;;;;;12.65;53.68;101569.94;5036237;28;1263;-91
2022/05/08 08:32:52;;;;;;;;;;;;;;;12.80;54.24;101573.56;5017909;28;1284;-91
2022/05/08 08:35:18;;;;;;;;;;;;;;;12.54;55.31;101577.28;5017857;28;1217;-91
2022/05/08 08:37:43;;;;;;;;;;;;;;;12.83;53.97;101581.28;5017742;28;1215;-90
2022/05/08 08:40:08;;;;;;;;;;;;;;;12.58;54.73;101583.09;5017555;28;1335;-91
2022/05/08 08:42:38;;;;;;;;;;;;;;;12.69;54.47;101587.50;5017511;28;1234;-90
2022/05/08 08:50:52;;;;;;;;;;;;;;;12.74;54.92;101590.31;5028939;28;767;-91
2022/05/08 08:53:17;;;;;;;;;;;;;;;12.78;53.77;101591.41;4996854;28;1330;-90
2022/05/08 08:55:43;;;;;;;;;;;;;;;12.85;52.96;101586.47;4997250;28;1216;-91
2022/05/08 08:58:08;;;;;;;;;;;;;;;13.07;52.83;101594.53;4996752;28;1270;-90
2022/05/08 09:00:33;;;;;;;;;;;;;;;13.03;53.34;101588.75;5003929;28;1253;-91
2022/05/08 09:02:58;;;;;;;;;;;;;;;13.33;53.85;101590.78;5019648;28;1306;-92
2022/05/08 09:05:24;;;;;;;;;;;;;;;13.46;53.26;101578.41;4997004;28;1915;-90
2022/05/08 09:07:59;;;;;;;;;;;;;;;13.50;51.54;101588.63;4997459;28;1384;-90
2022/05/08 09:10:28;;;;;;;;;;;;;;;13.55;53.44;101590.53;5015522;28;869;-90
2022/05/08 09:12:53;;;;;;;;;;;;;;;13.25;50.05;101581.16;4981758;28;1424;-90
2022/05/08 09:15:22;;;;;;;;;;;;;;;13.14;53.79;101584.13;4997459;28;1367;-91
2022/05/08 09:17:49;;;;;;;;;;;;;;;13.36;51.05;101589.41;4996898;28;1518;-90
2022/05/08 09:20:53;;;;;;;;;;;;;;;13.56;50.27;101589.44;4997527;28;1370;-90
2022/05/08 09:23:19;;;;;;;;;;;;;;;13.94;52.34;101588.06;4957476;28;1243;-90
2022/05/08 09:25:44;;;;;;;;;;;;;;;13.76;50.63;101589.44;4973601;28;1898;-90
2022/05/08 09:28:10;;;;;;;;;;;;;;;13.62;51.06;101593.84;4976415;28;1194;-89
2022/05/08 09:30:51;;;;;;;;;;;;;;;13.66;51.67;101589.44;4997001;28;1233;-89
2022/05/08 09:33:23;;;;;;;;;;;;;;;14.05;53.00;101577.84;4997274;28;1260;-91
2022/05/08 09:35:48;;;;;;;;;;;;;;;13.92;51.02;101587.53;5003400;28;1432;-91
2022/05/08 09:38:14;;;;;;;;;;;;;;;13.88;52.29;101583.66;4996806;28;865;-90
2022/05/08 09:40:39;;;;;;;;;;;;;;;13.97;50.25;101576.50;5005050;28;1305;-91
2022/05/08 09:43:05;;;;;;;;;;;;;;;14.00;51.77;101578.69;5006294;28;1661;-90
2022/05/08 09:45:30;;;;;;;;;;;;;;;14.06;51.56;101579.50;4996429;28;1954;-91
2022/05/08 09:47:57;;;;;;;;;;;;;;;14.06;51.20;101583.09;5005859;28;1036;-91
2022/05/08 09:50:22;;;;;;;;;;;;;;;14.16;50.52;101574.00;4998591;28;1263;-89
2022/05/08 09:52:48;;;;;;;;;;;;;;;14.10;47.06;101573.19;5012806;28;1338;-90
2022/05/08 09:55:14;;;;;;;;;;;;;;;14.26;48.38;101573.97;5009416;28;1303;-90
2022/05/08 09:57:39;;;;;;;;;;;;;;;14.25;49.42;101572.31;4991573;28;1366;-91
2022/05/08 10:00:05;;;;;;;;;;;;;;;14.47;51.03;101570.06;4990367;28;1364;-90
2022/05/08 10:02:30;;;;;;;;;;;;;;;14.76;51.37;101568.31;4996265;28;1401;-90
2022/05/08 10:04:57;;;;;;;;;;;;;;;14.87;51.59;101571.88;4996732;28;1180;-91
2022/05/08 10:07:23;;;;;;;;;;;;;;;14.64;51.47;101570.56;4996912;28;1894;-91
2022/05/08 10:15:20;;;;;;;;;;;;;;;15.22;50.84;101570.84;5014845;28;593;-92
2022/05/08 10:17:46;;;;;;;;;;;;;;;14.87;49.87;101563.59;5008129;28;1820;-90
2022/05/08 10:20:11;;;;;;;;;;;;;;;14.99;50.86;101566.00;5016037;28;1212;-90
2022/05/08 10:22:48;;;;;;;;;;;;;;;15.09;50.86;101558.50;5008330;28;1455;-91
2022/05/08 10:25:15;;;;;;;;;;;;;;;15.43;50.49;101566.00;5000440;28;1419;-91
2022/05/08 10:27:40;;;;;;;;;;;;;;;15.60;50.96;101558.19;4980257;28;1891;-91
2022/05/08 10:30:05;;;;;;;;;;;;;;;15.82;50.62;101560.50;4999624;28;1759;-90
2022/05/08 10:32:31;;;;;;;;;;;;;;;15.74;50.15;101556.38;5017610;28;1608;-91
2022/05/08 10:35:09;;;;;;;;;;;;;;;15.40;50.48;101561.03;5008377;28;1245;-91
2022/05/08 10:37:34;;;;;;;;;;;;;;;15.15;51.24;101560.13;5001839;28;1288;-91
2022/05/08 10:40:00;;;;;;;;;;;;;;;15.19;49.33;101562.31;5019411;28;1281;-91
2022/05/08 10:42:29;;;;;;;;;;;;;;;15.17;50.57;101562.59;5015635;28;1374;-91
2022/05/08 10:44:55;;;;;;;;;;;;;;;15.38;51.11;101555.84;5009271;28;1336;-91
2022/05/08 10:47:42;;;;;;;;;;;;;;;15.68;50.69;101551.22;5002829;28;1981;-90
2022/05/08 10:50:12;;;;;;;;;;;;;;;15.65;50.30;101554.56;5019435;28;1234;-91
2022/05/08 10:52:39;;;;;;;;;;;;;;;15.83;47.54;101553.84;5020411;28;1577;-90
2022/05/08 10:55:08;;;;;;;;;;;;;;;15.37;47.19;101556.94;5019568;28;1207;-91
2022/05/08 10:57:34;;;;;;;;;;;;;;;15.02;48.07;101546.16;5010173;28;1188;-90
2022/05/08 11:00:02;;;;;;;;;;;;;;;15.38;51.24;101550.31;5008753;28;1254;-90
2022/05/08 11:02:54;;;;;;;;;;;;;;;15.62;51.16;101544.09;5002160;28;1345;-91
2022/05/08 11:05:21;;;;;;;;;;;;;;;15.55;50.45;101540.84;4994309;28;1377;-91
2022/05/08 11:07:50;;;;;;;;;;;;;;;15.61;50.67;101540.50;5008851;28;1886;-91
2022/05/08 11:10:21;;;;;;;;;;;;;;;15.51;48.67;101546.91;5029005;28;1373;-91
2022/05/08 11:13:02;;;;;;;;;;;;;;;15.15;50.15;101539.97;5003410;28;1562;-90
2022/05/08 11:15:28;;;;;;;;;;;;;;;15.05;49.05;101540.06;4992549;28;1507;-91
2022/05/08 11:18:03;;;;;;;;;;;;;;;15.13;50.62;101533.94;5005998;28;1283;-90
2022/05/08 11:20:28;;;;;;;;;;;;;;;15.61;50.55;101542.44;5006562;28;1231;-91
2022/05/08 11:22:54;;;;;;;;;;;;;;;15.71;51.37;101539.59;5013580;28;1567;-91
2022/05/08 11:25:19;;;;;;;;;;;;;;;15.89;51.10;101533.38;5018695;28;1185;-91
2022/05/08 11:27:52;;;;;;;;;;;;;;;15.80;51.86;101533.16;4995202;28;1903;-91
2022/05/08 11:30:25;;;;;;;;;;;;;;;15.97;52.82;101535.50;5018511;28;1671;-91
2022/05/08 11:38:19;;;;;;;;;;;;;;;15.66;48.95;101534.09;5000449;28;1622;-92
2022/05/08 11:40:44;;;;;;;;;;;;;;;15.75;51.11;101524.91;5008011;28;786;-92
2022/05/08 11:43:09;;;;;;;;;;;;;;;15.51;49.47;101529.50;5013132;28;1433;-90
2022/05/08 11:45:34;;;;;;;;;;;;;;;15.62;49.39;101535.81;5017288;28;1955;-91
2022/05/08 11:47:59;;;;;;;;;;;;;;;15.70;49.69;101522.22;5008000;28;1282;-90
2022/05/08 11:50:25;;;;;;;;;;;;;;;15.76;48.04;101518.28;5003286;28;1776;-90
2022/05/08 11:52:58;;;;;;;;;;;;;;;15.75;48.36;101519.41;4998380;28;1278;-90
2022/05/08 11:55:23;;;;;;;;;;;;;;;15.88;49.25;101524.25;5015730;28;1044;-90
2022/05/08 11:57:49;;;;;;;;;;;;;;;15.68;49.09;101534.66;5015337;28;1231;-90
2022/05/08 12:00:15;;;;;;;;;;;;;;;15.74;48.93;101522.44;4997032;28;1360;-91
2022/05/08 12:02:46;;;;;;;;;;;;;;;15.69;48.85;101509.53;4997623;28;1799;-90
2022/05/08 12:05:21;;;;;;;;;;;;;;;15.92;50.09;101509.84;5003321;28;1724;-91
2022/05/08 12:07:47;;;;;;;;;;;;;;;16.21;50.79;101513.41;4978805;28;1953;-90
2022/05/08 12:10:12;;;;;;;;;;;;;;;16.47;52.14;101500.94;4978534;28;1319;-90
2022/05/08 12:12:39;;;;;;;;;;;;;;;16.31;47.69;101504.19;4978772;28;1332;-90
2022/05/08 12:15:07;;;;;;;;;;;;;;;16.33;48.76;101490.91;4978466;28;1380;-90
2022/05/08 12:17:42;;;;;;;;;;;;;;;16.66;49.47;101497.44;4990483;28;1418;-90
2022/05/08 12:20:14;;;;;;;;;;;;;;;16.81;48.30;101498.03;4994134;28;1728;-90
2022/05/08 12:22:40;;;;;;;;;;;;;;;16.85;49.42;101498.25;5013891;28;1224;-90
2022/05/08 12:25:06;;;;;;;;;;;;;;;16.85;46.16;101492.72;4997536;28;1732;-91
2022/05/08 12:27:33;;;;;;;;;;;;;;;16.52;47.24;101489.00;5000229;28;1890;-89
2022/05/08 12:29:58;;;;;;;;;;;;;;;16.48;46.04;101493.47;4996803;28;1604;-90
2022/05/08 12:32:26;;;;;;;;;;;;;;;16.51;47.53;101482.63;5030101;28;1332;-91
2022/05/08 12:34:53;;;;;;;;;;;;;;;16.73;48.43;101476.59;5002318;28;1270;-90
2022/05/08 12:37:19;;;;;;;;;;;;;;;16.90;45.61;101484.38;5015601;28;881;-91
2022/05/08 12:39:45;;;;;;;;;;;;;;;16.97;46.34;101482.88;4998511;28;1157;-91
2022/05/08 12:42:11;;;;;;;;;;;;;;;17.09;46.31;101485.19;4997964;28;1320;-91
2022/05/08 12:44:36;;;;;;;;;;;;;;;17.06;46.55;101468.34;4997622;28;1294;-90
2022/05/08 12:47:03;;;;;;;;;;;;;;;17.27;47.01;101480.72;4983658;28;1894;-91
2022/05/08 12:49:28;;;;;;;;;;;;;;;17.49;48.99;101480.94;4978271;28;1252;-90
2022/05/08 12:51:53;;;;;;;;;;;;;;;17.68;48.31;101483.69;4978262;28;953;-90
2022/05/08 12:54:18;;;;;;;;;;;;;;;17.73;48.61;101478.03;4993118;28;1400;-91
2022/05/08 12:56:46;;;;;;;;;;;;;;;17.69;48.74;101468.72;4997458;28;1544;-91
2022/05/08 13:01:55;;;;;;;;;;;;;;;17.93;46.20;101457.47;5013662;28;1595;-92
2022/05/08 13:04:21;;;;;;;;;;;;;;;18.02;47.18;101464.75;5008180;28;1307;-92
2022/05/08 13:06:46;;;;;;;;;;;;;;;18.01;45.27;101463.13;5002599;28;1919;-92
2022/05/08 13:09:11;;;;;;;;;;;;;;;17.86;41.99;101452.34;4998825;28;1446;-91
2022/05/08 13:11:37;;;;;;;;;;;;;;;17.63;39.75;101462.44;4994655;28;1352;-91
2022/05/08 13:14:03;;;;;;;;;;;;;;;17.84;41.41;101454.56;4999069;28;1322;-91
2022/05/08 13:16:29;;;;;;;;;;;;;;;17.97;40.76;101452.94;4997538;28;1360;-90
2022/05/08 13:18:54;;;;;;;;;;;;;;;19.08;38.65;101461.63;5004281;28;1016;-92
2022/05/08 13:21:20;;;;;;;;;;;;;;;24.34;30.87;101449.97;4996816;28;1915;-92
2022/05/08 13:23:46;;;;;;;;;;;;;;;26.68;25.07;101444.47;4997102;28;1344;-92
2022/05/08 13:26:11;;;;;;;;;;;;;;;28.17;23.52;101442.63;4997078;28;1957;-90
2022/05/08 13:28:36;;;;;;;;;;;;;;;30.00;22.50;101433.31;4996990;28;1307;-91
2022/05/08 13:31:04;;;;;;;;;;;;;;;31.26;21.16;101430.84;4996646;28;1005;-90
2022/05/08 13:33:29;;;;;;;;;;;;;;;31.06;20.85;101431.16;4996505;28;1321;-91
2022/05/08 13:35:54;;;;;;;;;;;;;;;29.17;21.90;101425.16;5001845;28;1646;-91
2022/05/08 13:38:20;;;;;;;;;;;;;;;29.10;21.77;101427.06;5005049;28;1209;-90
2022/05/08 13:40:46;;;;;;;;;;;;;;;30.12;22.06;101426.53;4995921;28;1398;-91
2022/05/08 13:43:11;;;;;;;;;;;;;;;31.22;19.70;101418.75;4995513;28;1501;-92
2022/05/08 13:45:36;;;;;;;;;;;;;;;31.67;20.06;101415.22;4996474;28;1961;-92
2022/05/08 13:48:01;;;;;;;;;;;;;;;30.52;20.47;101412.31;5012573;28;1395;-91
2022/05/08 13:50:27;;;;;;;;;;;;;;;29.85;21.92;101414.59;4977030;28;1296;-91
2022/05/08 13:52:52;;;;;;;;;;;;;;;29.74;21.67;101408.84;4976926;28;1175;-91
2022/05/08 13:55:17;;;;;;;;;;;;;;;29.96;23.01;101407.84;4991009;28;1509;-91
2022/05/08 13:57:43;;;;;;;;;;;;;;;26.24;26.45;101401.69;5013901;28;862;-91
2022/05/08 14:00:14;;;;;;;;;;;;;;;25.57;28.72;101410.00;4996516;28;1224;-91
2022/05/08 14:02:39;;;;;;;;;;;;;;;25.76;29.01;101412.16;4999862;28;1213;-91
2022/05/08 14:05:04;;;;;;;;;;;;;;;26.24;27.75;101402.50;5004679;28;1260;-90
2022/05/08 14:07:30;;;;;;;;;;;;;;;25.94;27.13;101405.00;5000066;28;1886;-90
2022/05/08 14:09:55;;;;;;;;;;;;;;;26.23;28.32;101400.88;5000471;28;1540;-91
2022/05/08 14:12:21;;;;;;;;;;;;;;;25.18;27.35;101403.31;5000297;28;1315;-90
2022/05/08 14:14:46;;;;;;;;;;;;;;;24.88;28.14;101396.44;5000127;28;1298;-91
2022/05/08 14:17:11;;;;;;;;;;;;;;;24.34;31.72;101395.97;5000144;28;873;-90
2022/05/08 14:19:36;;;;;;;;;;;;;;;24.78;30.93;101394.94;5017705;28;1031;-91
2022/05/08 14:22:01;;;;;;;;;;;;;;;25.08;30.69;101397.44;4999920;28;1256;-91
2022/05/08 14:24:26;;;;;;;;;;;;;;;26.18;29.58;101389.13;5000155;28;1627;-91
2022/05/08 14:26:52;;;;;;;;;;;;;;;27.03;28.07;101391.88;4999493;28;1953;-90
2022/05/08 14:29:17;;;;;;;;;;;;;;;25.80;27.20;101395.41;4999185;28;1392;-91
2022/05/08 14:37:09;;;;;;;;;;;;;;;25.31;29.71;101394.88;4998014;28;629;-92
2022/05/08 14:39:35;;;;;;;;;;;;;;;25.64;30.04;101395.41;4980251;28;885;-91
2022/05/08 14:42:00;;;;;;;;;;;;;;;24.91;31.38;101397.72;4981359;28;1560;-91
2022/05/08 14:44:25;;;;;;;;;;;;;;;24.88;30.64;101390.81;4999718;28;1160;-91
2022/05/08 14:46:50;;;;;;;;;;;;;;;25.78;28.58;101386.53;4999546;28;1902;-90
2022/05/08 14:49:15;;;;;;;;;;;;;;;25.11;29.44;101391.09;4999313;28;1029;-91
2022/05/08 14:51:40;;;;;;;;;;;;;;;24.68;29.42;101395.44;4982147;28;1648;-91
2022/05/08 14:54:09;;;;;;;;;;;;;;;25.16;28.05;101379.66;4980344;28;1305;-91
2022/05/08 14:56:34;;;;;;;;;;;;;;;25.72;27.56;101385.16;4980036;28;1550;-90
2022/05/08 14:58:59;;;;;;;;;;;;;;;26.26;27.11;101383.34;4997457;28;1024;-91
2022/05/08 15:01:24;;;;;;;;;;;;;;;27.32;24.34;101387.59;4987887;28;1567;-91
2022/05/08 15:03:49;;;;;;;;;;;;;;;25.83;25.66;101389.06;4999433;28;1197;-91
2022/05/08 15:06:14;;;;;;;;;;;;;;;24.03;29.54;101388.97;4999336;28;1911;-91
2022/05/08 15:08:42;;;;;;;;;;;;;;;23.32;29.44;101389.31;5013045;28;1818;-92
2022/05/08 15:11:07;;;;;;;;;;;;;;;23.57;30.39;101392.19;5016856;28;1222;-92
2022/05/08 15:13:37;;;;;;;;;;;;;;;23.34;28.88;101380.59;5007866;28;1652;-92
2022/05/08 15:16:02;;;;;;;;;;;;;;;23.35;30.46;101388.63;5001706;28;1400;-93
2022/05/08 15:21:14;;;;;;;;;;;;;;;23.09;29.27;101378.88;5019220;28;826;-92
2022/05/08 15:23:41;;;;;;;;;;;;;;;23.38;27.90;101374.00;5000051;28;1280;-91
2022/05/08 15:26:06;;;;;;;;;;;;;;;23.89;29.09;101370.94;4998902;28;1888;-91
2022/05/08 15:28:31;;;;;;;;;;;;;;;23.64;30.17;101373.72;4998847;28;1623;-91
2022/05/08 15:30:59;;;;;;;;;;;;;;;23.81;30.31;101367.09;5005471;28;1067;-92
2022/05/08 15:33:24;;;;;;;;;;;;;;;23.55;28.64;101372.19;4998164;28;1701;-90
2022/05/08 15:35:50;;;;;;;;;;;;;;;24.26;29.13;101361.38;5006273;28;1462;-91
2022/05/08 15:38:16;;;;;;;;;;;;;;;24.17;27.45;101360.63;4998157;28;1354;-90
2022/05/08 15:40:41;;;;;;;;;;;;;;;23.58;28.38;101369.50;4999043;28;1775;-91
2022/05/08 15:43:07;;;;;;;;;;;;;;;24.40;27.15;101363.81;4999009;28;1283;-91
2022/05/08 15:45:34;;;;;;;;;;;;;;;24.60;27.90;101361.97;4998342;28;1478;-90
2022/05/08 15:47:59;;;;;;;;;;;;;;;24.78;29.23;101366.94;4991714;28;1652;-92
2022/05/08 15:50:24;;;;;;;;;;;;;;;24.73;29.17;101363.59;4979225;28;953;-90
2022/05/08 15:52:52;;;;;;;;;;;;;;;24.62;29.97;101371.66;4978694;28;1280;-91
2022/05/08 15:55:18;;;;;;;;;;;;;;;24.55;29.26;101371.47;5001075;28;1724;-92
2022/05/08 15:57:43;;;;;;;;;;;;;;;24.45;30.10;101364.38;4997929;28;1585;-89
2022/05/08 16:00:08;;;;;;;;;;;;;;;23.68;31.90;101369.03;5023136;28;1494;-92
2022/05/08 16:02:34;;;;;;;;;;;;;;;23.39;30.98;101375.59;5016717;28;1293;-90
2022/05/08 16:05:00;;;;;;;;;;;;;;;23.16;31.54;101370.75;5019720;28;1710;-90
2022/05/08 16:07:25;;;;;;;;;;;;;;;23.16;31.57;101374.38;4997549;28;1902;-91
2022/05/08 16:09:50;;;;;;;;;;;;;;;23.38;31.58;101378.75;4989966;28;1489;-91
2022/05/08 16:12:15;;;;;;;;;;;;;;;23.52;31.04;101365.31;5005370;28;1597;-90
2022/05/08 16:23:14;;;;;;;;;;;;;;;23.13;31.78;101371.47;5026508;28;1342;-90
2022/05/08 16:25:42;;;;;;;;;;;;;;;22.96;31.71;101367.69;4988643;23;1906;-90
2022/05/08 16:28:07;;;;;;;;;;;;;;;22.60;32.00;101371.09;4977866;28;1508;-91
2022/05/08 16:30:33;;;;;;;;;;;;;;;22.29;32.01;101367.84;5016331;28;1321;-90
2022/05/08 16:32:58;;;;;;;;;;;;;;;22.81;31.67;101370.28;5015324;28;1397;-91
2022/05/08 16:35:23;;;;;;;;;;;;;;;23.13;31.77;101377.88;5031558;28;1225;-90
2022/05/08 16:37:52;;;;;;;;;;;;;;;22.95;31.86;101371.63;5031545;28;1335;-91
2022/05/08 16:40:18;;;;;;;;;;;;;;;22.46;31.45;101372.50;5015964;28;1708;-92
2022/05/08 16:42:43;;;;;;;;;;;;;;;22.52;31.10;101376.75;5013472;28;1829;-91
2022/05/08 16:45:09;;;;;;;;;;;;;;;22.89;31.35;101372.16;5030077;28;1520;-91
2022/05/08 16:47:34;;;;;;;;;;;;;;;22.84;29.23;101370.41;4995806;28;1947;-91
2022/05/08 16:49:59;;;;;;;;;;;;;;;22.30;30.37;101363.09;4995735;28;1845;-91
2022/05/08 16:52:24;;;;;;;;;;;;;;;22.58;30.89;101378.16;5013807;28;1469;-91
2022/05/08 16:54:50;;;;;;;;;;;;;;;22.73;30.53;101374.75;5015391;28;1289;-92
2022/05/08 16:57:15;;;;;;;;;;;;;;;22.87;30.39;101369.75;5018829;28;1228;-91
2022/05/08 16:59:40;;;;;;;;;;;;;;;22.89;30.78;101375.78;5016148;28;1209;-89
2022/05/08 17:02:05;;;;;;;;;;;;;;;22.53;29.67;101381.16;5031475;28;1286;-90
2022/05/08 17:04:30;;;;;;;;;;;;;;;22.52;30.70;101377.56;5031029;28;1390;-91
2022/05/08 17:06:56;;;;;;;;;;;;;;;22.33;29.78;101374.41;5030809;28;1946;-90
2022/05/08 17:09:28;;;;;;;;;;;;;;;22.35;30.83;101374.88;5014336;28;1260;-89
2022/05/08 17:11:54;;;;;;;;;;;;;;;22.64;29.67;101379.59;5013867;28;1708;-90
2022/05/08 17:14:21;;;;;;;;;;;;;;;22.15;29.68;101379.28;5017775;28;1365;-90
2022/05/08 17:16:46;;;;;;;;;;;;;;;21.62;31.68;101381.78;5031672;28;1428;-90
2022/05/08 17:19:14;;;;;;;;;;;;;;;21.83;31.12;101385.50;5033265;28;1182;-91
2022/05/08 17:21:45;;;;;;;;;;;;;;;21.78;30.61;101385.66;5017352;28;1648;-90
2022/05/08 17:24:10;;;;;;;;;;;;;;;21.82;30.21;101381.88;5017248;28;1646;-90
2022/05/08 17:29:46;;;;;;;;;;;;;;;22.20;30.21;101376.28;5034984;28;1629;-92
2022/05/08 17:32:31;;;;;;;;;;;;;;;21.79;30.17;101382.53;5035009;28;1115;-91
2022/05/08 17:34:56;;;;;;;;;;;;;;;21.69;29.90;101380.13;5033563;28;1220;-91
2022/05/08 17:37:21;;;;;;;;;;;;;;;21.49;30.70;101390.03;5032983;28;1239;-92
2022/05/08 17:39:47;;;;;;;;;;;;;;;21.54;30.18;101386.25;5033036;28;1364;-91
2022/05/08 17:42:12;;;;;;;;;;;;;;;20.73;31.04;101378.66;5032361;28;1882;-90
2022/05/08 17:44:38;;;;;;;;;;;;;;;21.22;30.34;101382.06;5017111;28;1272;-89
2022/05/08 17:47:04;;;;;;;;;;;;;;;21.87;30.85;101380.84;5033278;28;1951;-91
2022/05/08 17:49:29;;;;;;;;;;;;;;;22.48;29.86;101384.97;5033597;28;1467;-90
2022/05/08 17:51:54;;;;;;;;;;;;;;;21.97;29.84;101388.88;5033573;28;1214;-92
2022/05/08 17:54:19;;;;;;;;;;;;;;;21.86;30.69;101387.63;5032724;28;1413;-91
2022/05/08 17:56:45;;;;;;;;;;;;;;;21.23;32.04;101391.25;5032763;28;1191;-91
2022/05/08 17:59:10;;;;;;;;;;;;;;;21.05;33.18;101390.44;5032707;28;1288;-91
2022/05/08 18:01:35;;;;;;;;;;;;;;;21.02;31.24;101386.31;5033028;28;1262;-91
2022/05/08 18:06:44;;;;;;;;;;;;;;;21.41;32.28;101396.47;5034069;28;1965;-91
2022/05/08 18:09:09;;;;;;;;;;;;;;;20.93;33.41;101393.88;5032788;28;942;-91
2022/05/08 18:11:34;;;;;;;;;;;;;;;20.14;34.83;101390.50;5032619;28;976;-91
2022/05/08 18:14:03;;;;;;;;;;;;;;;20.05;35.07;101400.78;5032415;28;1241;-91
2022/05/08 18:16:29;;;;;;;;;;;;;;;19.96;34.21;101396.00;5034189;28;912;-90
2022/05/08 18:18:54;;;;;;;;;;;;;;;19.49;37.05;101405.91;5033167;28;959;-91
2022/05/08 18:21:19;;;;;;;;;;;;;;;19.60;36.30;101407.28;5032536;28;749;-91
2022/05/08 18:23:44;;;;;;;;;;;;;;;19.59;35.28;101405.66;5032614;28;937;-92
2022/05/08 18:26:09;;;;;;;;;;;;;;;19.44;36.58;101424.66;5032445;28;1890;-92
2022/05/08 18:28:34;;;;;;;;;;;;;;;19.63;35.53;101412.22;5032518;28;1036;-91
2022/05/08 18:31:00;;;;;;;;;;;;;;;19.65;35.08;101409.09;5032376;28;1211;-91
2022/05/08 18:33:25;;;;;;;;;;;;;;;19.40;37.42;101421.69;5030656;28;1397;-91
2022/05/08 18:35:50;;;;;;;;;;;;;;;19.27;37.72;101419.81;5032235;28;1223;-91
2022/05/08 18:38:15;;;;;;;;;;;;;;;19.00;37.20;101419.94;5032339;28;1280;-91
2022/05/08 18:40:40;;;;;;;;;;;;;;;18.56;38.53;101420.66;5033938;28;1333;-91
2022/05/08 18:43:07;;;;;;;;;;;;;;;18.78;38.71;101424.34;5032733;28;1224;-92
2022/05/08 18:45:32;;;;;;;;;;;;;;;18.76;37.87;101426.59;5033023;28;1244;-93
2022/05/08 18:47:57;;;;;;;;;;;;;;;18.85;38.11;101423.91;5032663;28;1890;-93
2022/05/08 18:50:23;;;;;;;;;;;;;;;18.81;37.72;101428.41;5035039;28;1289;-92
2022/05/08 18:52:49;;;;;;;;;;;;;;;18.57;39.50;101430.66;5036092;28;1267;-92
2022/05/08 18:55:14;;;;;;;;;;;;;;;18.05;41.97;101433.66;5036134;28;1270;-92
2022/05/08 18:57:39;;;;;;;;;;;;;;;17.95;42.64;101444.13;5036165;28;1334;-93
2022/05/08 19:00:06;;;;;;;;;;;;;;;17.80;42.92;101434.16;5036003;28;1378;-92
2022/05/08 19:02:32;;;;;;;;;;;;;;;17.63;45.49;101442.22;5036247;28;1180;-92
2022/05/08 19:04:57;;;;;;;;;;;;;;;17.21;46.52;101445.97;5036406;28;1260;-93
2022/05/08 19:07:22;;;;;;;;;;;;;;;17.24;45.43;101450.91;5036289;28;1894;-93
2022/05/08 19:09:48;;;;;;;;;;;;;;;17.42;44.62;101452.81;5036117;28;1181;-93
2022/05/08 19:12:14;;;;;;;;;;;;;;;17.47;45.22;101449.97;5036067;28;1334;-93
2022/05/08 19:14:43;;;;;;;;;;;;;;;17.37;46.39;101452.88;5036112;28;1373;-93
2022/05/08 19:17:13;;;;;;;;;;;;;;;16.27;48.67;101454.22;5036940;28;1380;-93
2022/05/08 19:19:39;;;;;;;;;;;;;;;16.60;47.24;101458.75;5036326;28;1390;-92
2022/05/08 19:22:04;;;;;;;;;;;;;;;16.69;47.66;101463.63;5036262;28;1386;-92
2022/05/08 19:24:29;;;;;;;;;;;;;;;16.12;49.09;101466.28;5019547;28;1280;-92
2022/05/08 19:26:55;;;;;;;;;;;;;;;15.70;49.83;101471.72;5019575;28;1906;-92
2022/05/08 19:29:20;;;;;;;;;;;;;;;15.70;50.05;101471.72;5019566;28;1376;-92
2022/05/08 19:39:58;;;;;;;;;;;;;;;15.96;48.42;101480.56;5045762;28;699;-93
2022/05/08 19:42:23;;;;;;;;;;;;;;;16.12;48.36;101488.38;5027200;28;1310;-92
2022/05/08 19:44:49;;;;;;;;;;;;;;;16.04;47.79;101490.97;5024717;28;1310;-92
2022/05/08 19:47:17;;;;;;;;;;;;;;;16.04;48.71;101489.03;5029402;28;1955;-93
2022/05/08 19:49:43;;;;;;;;;;;;;;;15.05;50.63;101496.78;5025938;28;1334;-92
2022/05/08 19:52:10;;;;;;;;;;;;;;;15.37;50.18;101495.44;5021306;28;1332;-91
2022/05/08 19:54:35;;;;;;;;;;;;;;;15.53;49.53;101496.94;5026955;28;1232;-92
2022/05/08 19:57:01;;;;;;;;;;;;;;;15.23;50.31;101494.41;5022722;28;1202;-91
2022/05/08 19:59:26;;;;;;;;;;;;;;;15.31;49.32;101500.16;5021565;28;1179;-92
2022/05/08 20:01:51;;;;;;;;;;;;;;;14.77;50.30;101498.31;5027341;28;1201;-93
2022/05/08 20:04:20;;;;;;;;;;;;;;;14.61;51.23;101507.78;5028622;28;1266;-91
2022/05/08 20:06:45;;;;;;;;;;;;;;;14.34;52.18;101507.31;5025998;28;1961;-91
2022/05/08 20:09:10;;;;;;;;;;;;;;;14.41;51.93;101505.09;5029167;28;1197;-92